DAL443 KLAX-PHNL
Flight info
| Callsign | DAL443 |
|---|---|
| Flight time | N/A |
| Altitude | 30000 |
| Route | SUMMR2 DINTY DUETS R576 DENNS MAGGI3 |
| Aircraft | A21N/M-L/LB1 |
Departure
| Time | N/A |
|---|---|
| Airport | Los Angeles International Airport (KLAX) |
Arrival
| Time | 2026-05-01 07:56 |
|---|---|
| Airport | Daniel K. Inouye International Airport (PHNL) |
| Time | Latitude | Longitude | Altitude | Speed | Heading |
|---|---|---|---|---|---|
| 2026-05-01 07:23 | 22.38417 | -155.00667 | 32199 ft | 491 kts | 277° |
| 2026-05-01 07:24 | 22.38580 | -155.11763 | 32198 ft | 491 kts | 277° |
| 2026-05-01 07:24 | 22.38687 | -155.19089 | 32196 ft | 491 kts | 277° |
| 2026-05-01 07:25 | 22.38786 | -155.26467 | 32193 ft | 491 kts | 277° |
| 2026-05-01 07:25 | 22.38888 | -155.33840 | 32184 ft | 491 kts | 277° |
| 2026-05-01 07:26 | 22.38984 | -155.41209 | 32200 ft | 490 kts | 277° |
| 2026-05-01 07:26 | 22.39073 | -155.48547 | 32189 ft | 490 kts | 277° |
| 2026-05-01 07:27 | 22.39164 | -155.55914 | 32198 ft | 489 kts | 277° |
| 2026-05-01 07:27 | 22.39248 | -155.63281 | 32193 ft | 489 kts | 277° |
| 2026-05-01 07:27 | 22.39289 | -155.66951 | 32057 ft | 489 kts | 276° |
| 2026-05-01 07:28 | 22.39328 | -155.70633 | 31681 ft | 488 kts | 276° |
| 2026-05-01 07:28 | 22.39368 | -155.74263 | 31395 ft | 489 kts | 276° |
| 2026-05-01 07:28 | 22.39407 | -155.77940 | 31131 ft | 489 kts | 276° |
| 2026-05-01 07:28 | 22.39445 | -155.81628 | 30898 ft | 490 kts | 276° |
| 2026-05-01 07:29 | 22.39482 | -155.85321 | 30657 ft | 490 kts | 276° |
| 2026-05-01 07:29 | 22.39518 | -155.88999 | 30420 ft | 485 kts | 276° |
| 2026-05-01 07:29 | 22.39552 | -155.92628 | 30172 ft | 481 kts | 276° |
| 2026-05-01 07:29 | 22.39586 | -155.96192 | 29895 ft | 479 kts | 276° |
| 2026-05-01 07:30 | 22.39619 | -155.99791 | 29616 ft | 477 kts | 276° |
| 2026-05-01 07:30 | 22.39648 | -156.03371 | 29339 ft | 475 kts | 276° |
| 2026-05-01 07:30 | 22.39678 | -156.06934 | 29070 ft | 473 kts | 276° |
| 2026-05-01 07:30 | 22.39709 | -156.10490 | 28800 ft | 471 kts | 276° |
| 2026-05-01 07:31 | 22.39739 | -156.14028 | 28534 ft | 469 kts | 276° |
| 2026-05-01 07:31 | 22.38750 | -156.24486 | 27736 ft | 479 kts | 253° |
| 2026-05-01 07:32 | 22.35120 | -156.30585 | 27243 ft | 486 kts | 233° |
| 2026-05-01 07:32 | 22.32956 | -156.33319 | 26993 ft | 484 kts | 232° |
| 2026-05-01 07:33 | 22.28610 | -156.38861 | 26494 ft | 480 kts | 233° |
| 2026-05-01 07:33 | 22.26482 | -156.41620 | 26245 ft | 478 kts | 233° |
| 2026-05-01 07:33 | 22.22239 | -156.47121 | 25758 ft | 474 kts | 233° |
| 2026-05-01 07:34 | 22.20142 | -156.49858 | 25526 ft | 472 kts | 233° |
| 2026-05-01 07:34 | 22.15993 | -156.55279 | 25060 ft | 469 kts | 233° |
| 2026-05-01 07:34 | 22.13906 | -156.57989 | 24824 ft | 467 kts | 233° |
| 2026-05-01 07:35 | 22.11829 | -156.60680 | 24600 ft | 465 kts | 233° |
| 2026-05-01 07:35 | 22.09758 | -156.63369 | 24365 ft | 464 kts | 233° |
| 2026-05-01 07:35 | 22.07715 | -156.66017 | 24144 ft | 462 kts | 233° |
| 2026-05-01 07:35 | 22.05762 | -156.68546 | 23925 ft | 461 kts | 233° |
| 2026-05-01 07:36 | 22.03709 | -156.71202 | 23693 ft | 459 kts | 233° |
| 2026-05-01 07:36 | 22.01658 | -156.73848 | 23427 ft | 457 kts | 233° |
| 2026-05-01 07:36 | 21.99624 | -156.76473 | 23157 ft | 455 kts | 233° |
| 2026-05-01 07:36 | 21.97623 | -156.79056 | 22899 ft | 453 kts | 233° |
| 2026-05-01 07:37 | 21.93611 | -156.84228 | 22368 ft | 448 kts | 232° |
| 2026-05-01 07:37 | 21.91609 | -156.86810 | 22135 ft | 446 kts | 232° |
| 2026-05-01 07:37 | 21.89624 | -156.89369 | 21866 ft | 444 kts | 232° |
| 2026-05-01 07:38 | 21.87641 | -156.91925 | 21614 ft | 442 kts | 232° |
| 2026-05-01 07:38 | 21.85702 | -156.94424 | 21366 ft | 440 kts | 232° |
| 2026-05-01 07:38 | 21.81794 | -156.99463 | 20868 ft | 435 kts | 232° |
| 2026-05-01 07:39 | 21.79858 | -157.01961 | 20627 ft | 433 kts | 232° |
| 2026-05-01 07:39 | 21.77928 | -157.04447 | 20385 ft | 432 kts | 232° |
| 2026-05-01 07:39 | 21.74093 | -157.09389 | 19621 ft | 426 kts | 232° |
| 2026-05-01 07:40 | 21.72193 | -157.11838 | 19073 ft | 424 kts | 232° |
| 2026-05-01 07:40 | 21.70333 | -157.14231 | 18514 ft | 420 kts | 232° |
| 2026-05-01 07:40 | 21.68466 | -157.16632 | 17897 ft | 418 kts | 232° |
| 2026-05-01 07:40 | 21.66602 | -157.19028 | 17260 ft | 415 kts | 231° |
| 2026-05-01 07:41 | 21.64755 | -157.21404 | 16626 ft | 411 kts | 231° |
| 2026-05-01 07:41 | 21.62925 | -157.23758 | 16049 ft | 408 kts | 231° |
| 2026-05-01 07:41 | 21.59276 | -157.28443 | 14987 ft | 408 kts | 231° |
| 2026-05-01 07:42 | 21.57456 | -157.30778 | 14451 ft | 406 kts | 230° |
| 2026-05-01 07:42 | 21.55674 | -157.33062 | 13925 ft | 400 kts | 230° |
| 2026-05-01 07:42 | 21.53889 | -157.35350 | 13342 ft | 394 kts | 230° |
| 2026-05-01 07:42 | 21.52140 | -157.37591 | 12796 ft | 388 kts | 230° |
| 2026-05-01 07:43 | 21.50417 | -157.39796 | 12281 ft | 382 kts | 230° |
| 2026-05-01 07:43 | 21.48738 | -157.41947 | 11771 ft | 380 kts | 230° |
| 2026-05-01 07:43 | 21.45360 | -157.46267 | 10975 ft | 367 kts | 230° |
| 2026-05-01 07:44 | 21.42193 | -157.50316 | 10549 ft | 340 kts | 230° |
| 2026-05-01 07:44 | 21.39286 | -157.54027 | 9935 ft | 314 kts | 230° |
| 2026-05-01 07:45 | 21.37895 | -157.55801 | 9671 ft | 304 kts | 229° |
| 2026-05-01 07:45 | 21.36549 | -157.57519 | 9298 ft | 300 kts | 229° |
| 2026-05-01 07:45 | 21.35195 | -157.59248 | 8700 ft | 305 kts | 229° |
| 2026-05-01 07:45 | 21.33840 | -157.60975 | 8340 ft | 304 kts | 228° |
| 2026-05-01 07:46 | 21.32481 | -157.62706 | 8047 ft | 301 kts | 228° |
| 2026-05-01 07:46 | 21.31148 | -157.64407 | 7734 ft | 295 kts | 227° |
| 2026-05-01 07:46 | 21.28516 | -157.67748 | 6958 ft | 293 kts | 227° |
| 2026-05-01 07:47 | 21.27200 | -157.69421 | 6550 ft | 294 kts | 227° |
| 2026-05-01 07:47 | 21.25877 | -157.71106 | 6152 ft | 296 kts | 229° |
| 2026-05-01 07:47 | 21.24894 | -157.73045 | 5723 ft | 300 kts | 252° |
| 2026-05-01 07:47 | 21.24401 | -157.75223 | 5325 ft | 300 kts | 258° |
| 2026-05-01 07:48 | 21.23612 | -157.79605 | 4492 ft | 298 kts | 259° |
| 2026-05-01 07:48 | 21.23213 | -157.81796 | 4072 ft | 297 kts | 259° |
| 2026-05-01 07:48 | 21.22663 | -157.83896 | 3663 ft | 297 kts | 251° |
| 2026-05-01 07:49 | 21.21948 | -157.85971 | 3246 ft | 296 kts | 249° |
| 2026-05-01 07:49 | 21.20495 | -157.90066 | 2552 ft | 289 kts | 249° |
| 2026-05-01 07:49 | 21.19783 | -157.92051 | 2527 ft | 285 kts | 248° |
| 2026-05-01 07:50 | 21.18779 | -157.93886 | 2700 ft | 287 kts | 233° |
| 2026-05-01 07:50 | 21.16707 | -157.97504 | 2874 ft | 288 kts | 252° |
| 2026-05-01 07:50 | 21.16513 | -157.99626 | 2349 ft | 287 kts | 280° |
| 2026-05-01 07:51 | 21.17125 | -158.01614 | 2024 ft | 274 kts | 304° |
| 2026-05-01 07:51 | 21.17840 | -158.02652 | 1965 ft | 259 kts | 319° |
| 2026-05-01 07:51 | 21.19219 | -158.03766 | 1946 ft | 232 kts | 339° |
| 2026-05-01 07:52 | 21.22041 | -158.04308 | 1967 ft | 196 kts | 11° |
| 2026-05-01 07:52 | 21.23336 | -158.03899 | 1980 ft | 194 kts | 35° |
| 2026-05-01 07:52 | 21.24314 | -158.02977 | 1958 ft | 188 kts | 51° |
| 2026-05-01 07:53 | 21.25791 | -158.00782 | 1829 ft | 167 kts | 55° |
| 2026-05-01 07:53 | 21.26451 | -157.99803 | 1647 ft | 157 kts | 54° |
| 2026-05-01 07:53 | 21.27064 | -157.98889 | 1452 ft | 145 kts | 55° |
| 2026-05-01 07:53 | 21.27629 | -157.98076 | 1276 ft | 126 kts | 57° |
| 2026-05-01 07:54 | 21.28696 | -157.96555 | 938 ft | 131 kts | 53° |
| 2026-05-01 07:55 | 21.30223 | -157.94374 | 376 ft | 123 kts | 54° |
| 2026-05-01 07:55 | 21.31289 | -157.92854 | 99 ft | 130 kts | 54° |
| 2026-05-01 07:56 | 21.32439 | -157.91232 | 21 ft | 30 kts | 53° |
| 2026-05-01 07:56 | 21.32709 | -157.90852 | 25 ft | 33 kts | 53° |
| 2026-05-01 07:57 | 21.32827 | -157.90684 | 24 ft | 14 kts | 52° |
| 2026-05-01 07:57 | 21.32996 | -157.90726 | 20 ft | 16 kts | 329° |
| 2026-05-01 07:58 | 21.32982 | -157.90955 | 24 ft | 19 kts | 230° |
| 2026-05-01 07:58 | 21.32814 | -157.91192 | 26 ft | 19 kts | 232° |
| 2026-05-01 07:59 | 21.32773 | -157.91406 | 22 ft | 16 kts | 269° |
| 2026-05-01 07:59 | 21.32774 | -157.91677 | 25 ft | 19 kts | 269° |
| 2026-05-01 08:00 | 21.32980 | -157.91888 | 24 ft | 15 kts | 11° |
| 2026-05-01 08:01 | 21.33108 | -157.91870 | 26 ft | 0 kts | 6° |